Time;durP1;ratioP1;P1;durP2;ratioP2;P2;SDS_P1;SDS_P2;PMS_P1;PMS_P2;Temp;Humidity;BMP_temperature;BMP_pressure;BME280_temperature;BME280_humidity;BME280_pressure;Samples;Min_cycle;Max_cycle;Signal;HPM_P1;HPM_P2
2021/12/27 00:02:13;;;;;;;33.03;15.20;;;-3.60;54.80;;;-5.93;63.29;100883.84;8295453;28;20553;-81
2021/12/27 00:06:34;;;;;;;34.70;15.13;;;-3.60;54.80;;;-5.82;63.01;100892.47;8289686;28;20546;-81
2021/12/27 00:10:56;;;;;;;35.72;16.90;;;-3.40;54.90;;;-6.01;63.45;100863.44;8297210;28;20116;-81
2021/12/27 00:15:18;;;;;;;42.10;19.73;;;-3.60;54.80;;;-5.94;63.14;100869.47;8306732;28;20451;-80
2021/12/27 00:19:40;;;;;;;36.20;16.92;;;-3.60;54.70;;;-5.88;62.83;100874.59;8309294;28;20038;-81
2021/12/27 00:24:02;;;;;;;39.90;17.40;;;-3.60;54.70;;;-6.11;62.67;100830.25;8270195;28;20118;-80
2021/12/27 00:28:24;;;;;;;52.05;22.27;;;-3.60;54.80;;;-5.98;63.49;100854.16;8294210;28;20043;-81
2021/12/27 00:32:47;;;;;;;42.75;19.08;;;-3.40;54.60;;;-5.82;62.74;100884.00;8305888;28;20121;-81
2021/12/27 00:37:09;;;;;;;40.15;19.88;;;-3.60;54.70;;;-6.02;63.53;100833.78;8306889;28;20126;-81
2021/12/27 00:41:31;;;;;;;41.13;18.63;;;-3.70;54.80;;;-6.15;63.34;100813.25;8313418;28;20112;-81
2021/12/27 00:45:53;;;;;;;42.05;18.83;;;-3.60;54.80;;;-5.87;63.06;100850.88;8309563;28;20116;-81
2021/12/27 00:50:15;;;;;;;36.53;17.30;;;-3.60;54.80;;;-5.92;63.06;100838.94;8303807;28;20120;-80
2021/12/27 00:54:36;;;;;;;39.70;18.02;;;-3.60;54.80;;;-6.10;62.93;100812.47;8306771;28;20097;-80
2021/12/27 00:58:58;;;;;;;47.22;20.23;;;-3.60;54.80;;;-5.95;63.25;100831.31;8310053;28;20109;-80
2021/12/27 01:03:20;;;;;;;45.80;19.88;;;-3.60;54.80;;;-5.91;63.33;100838.09;8313701;28;20124;-81
2021/12/27 01:07:43;;;;;;;41.28;18.33;;;-3.60;54.70;;;-5.86;63.54;100837.34;8286976;28;20124;-81
2021/12/27 01:16:37;;;;;;;47.50;18.90;;;-3.50;54.80;;;-5.72;62.76;100846.84;8296936;28;20569;-80
2021/12/27 01:20:59;;;;;;;41.17;17.92;;;-3.50;54.80;;;-5.78;63.59;100834.88;8313439;28;20125;-80
2021/12/27 01:25:22;;;;;;;52.92;21.15;;;-3.50;54.70;;;-5.84;62.96;100828.03;8296918;28;20120;-80
2021/12/27 01:29:44;;;;;;;44.92;19.35;;;-3.50;54.70;;;-5.79;63.71;100833.19;8307992;28;20569;-81
2021/12/27 01:34:05;;;;;;;41.22;18.90;;;-3.70;54.60;;;-5.87;63.45;100820.38;8315703;28;20163;-80
2021/12/27 01:38:27;;;;;;;42.80;19.52;;;-3.30;54.80;;;-5.80;63.27;100827.25;8305488;28;20444;-80
2021/12/27 01:43:10;;;;;;;46.13;19.40;;;-3.50;54.70;;;-5.88;62.92;100813.59;8325479;28;20116;-80
2021/12/27 01:47:32;;;;;;;40.95;21.00;;;-3.50;54.70;;;-5.80;62.98;100812.00;8305291;28;20122;-81
2021/12/27 01:51:54;;;;;;;45.63;20.00;;;-3.10;54.90;;;-5.84;63.40;100805.16;8299139;28;20120;-81
2021/12/27 01:56:20;;;;;;;68.55;25.70;;;-3.50;54.70;;;-6.00;63.40;100775.31;8307258;28;20124;-81
2021/12/27 02:00:47;;;;;;;48.97;19.80;;;-3.60;54.60;;;-5.81;63.40;100802.66;8297618;28;20113;-80
2021/12/27 02:05:09;;;;;;;55.78;23.35;;;-3.60;54.70;;;-5.83;63.17;100791.63;8315790;28;20113;-80
2021/12/27 02:09:42;;;;;;;47.60;20.63;;;-3.50;55.00;;;-5.74;63.60;100800.19;8292317;28;20714;-80
2021/12/27 02:14:05;;;;;;;43.65;21.17;;;-3.40;54.80;;;-5.81;63.18;100768.75;8302570;28;20036;-82
2021/12/27 02:18:27;;;;;;;35.15;18.08;;;-3.40;54.70;;;-5.93;62.92;100758.47;8287909;28;20455;-80
2021/12/27 02:22:51;;;;;;;40.97;19.48;;;-3.50;54.80;;;-5.72;63.07;100773.13;8298724;28;20116;-81
2021/12/27 02:27:15;;;;;;;57.63;23.65;;;-3.40;54.80;;;-5.74;63.66;100764.59;8286249;28;20570;-81
2021/12/27 02:31:40;;;;;;;45.22;20.67;;;-3.40;54.60;;;-5.65;63.47;100780.81;8276757;28;20136;-81
2021/12/27 02:36:05;;;;;;;44.03;20.57;;;-3.40;54.70;;;-5.88;63.34;100736.47;8277015;28;20465;-81
2021/12/27 02:40:29;;;;;;;;;;;-3.40;54.70;;;-5.61;63.04;100761.38;8307837;28;20425;-81
2021/12/27 02:44:50;;;;;;;41.40;19.10;;;-3.30;54.80;;;-5.64;63.06;100766.41;8291365;28;19999;-81
2021/12/27 02:49:12;;;;;;;42.63;19.52;;;-3.30;54.80;;;-5.61;63.44;100766.47;8288158;28;20120;-81
2021/12/27 02:53:37;;;;;;;39.17;19.23;;;-3.40;54.70;;;-5.72;63.10;100740.06;8273558;28;20108;-81
2021/12/27 02:57:59;;;;;;;49.20;20.83;;;-3.30;54.80;;;-5.66;63.13;100735.88;8315918;28;20056;-81
2021/12/27 03:02:21;;;;;;;62.65;25.83;;;-3.30;54.80;;;-5.47;63.63;100751.34;8283751;28;20120;-81
2021/12/27 03:06:43;;;;;;;52.70;23.35;;;-3.00;54.80;;;-5.69;63.45;100717.19;8302624;28;20116;-81
2021/12/27 03:11:10;;;;;;;52.83;22.52;;;-3.20;54.80;;;-5.51;63.11;100725.00;8283494;28;20132;-81
2021/12/27 03:15:31;;;;;;;41.58;19.10;;;-3.20;54.80;;;-5.76;63.05;100675.56;8300200;28;20108;-81
2021/12/27 03:19:54;;;;;;;43.72;21.00;;;-3.40;54.70;;;-5.39;63.70;100748.03;8302031;28;20041;-81
2021/12/27 03:24:16;;;;;;;40.63;18.55;;;-3.20;54.80;;;-5.36;63.19;100742.13;8268258;28;20196;-81
2021/12/27 03:28:40;;;;;;;40.05;18.50;;;-3.10;54.90;;;-5.36;63.49;100731.94;8295770;28;20154;-81
2021/12/27 03:33:04;;;;;;;41.78;19.80;;;-3.10;54.90;;;-5.53;63.64;100691.06;8316267;28;20496;-81
2021/12/27 03:37:26;;;;;;;47.40;20.50;;;-3.10;54.80;;;-5.35;63.29;100698.00;8314008;28;20100;-80
2021/12/27 03:41:48;;;;;;;57.92;25.42;;;-2.90;54.90;;;-5.48;63.49;100658.03;8276350;28;20120;-81
2021/12/27 03:46:09;;;;;;;45.47;19.58;;;-2.70;54.90;;;-5.31;63.31;100683.66;8296865;28;20137;-82
2021/12/27 03:50:32;;;;;;;51.88;23.40;;;-3.10;54.70;;;-5.26;63.40;100685.38;8299975;28;20513;-81
2021/12/27 03:54:53;;;;;;;46.53;20.73;;;-3.00;54.60;;;-5.22;63.18;100679.47;8269517;28;20124;-81
2021/12/27 03:59:37;;;;;;;51.00;19.73;;;-3.00;54.70;;;-5.18;62.92;100682.91;8294916;28;20149;-80
2021/12/27 04:03:59;;;;;;;44.95;20.65;;;-2.90;54.80;;;-5.22;63.04;100666.75;8290643;28;20120;-81
2021/12/27 04:08:22;;;;;;;50.85;22.00;;;-2.90;54.90;;;-5.06;63.40;100684.69;8293130;28;20124;-80
2021/12/27 04:12:44;;;;;;;56.88;24.40;;;-3.00;54.80;;;-5.15;63.42;100665.97;8316867;28;20128;-81
2021/12/27 04:17:06;;;;;;;48.40;21.00;;;-2.80;54.80;;;-5.11;63.33;100666.81;8276434;28;20042;-80
2021/12/27 04:21:27;;;;;;;48.15;20.13;;;-2.80;54.70;;;-5.00;63.31;100687.28;8305947;28;20125;-81
2021/12/27 04:25:49;;;;;;;52.85;22.42;;;-2.70;54.70;;;-5.31;63.23;100623.41;8314005;28;20140;-81
2021/12/27 04:30:12;;;;;;;42.45;20.67;;;-2.80;54.40;;;-5.06;63.09;100644.81;8287572;28;20116;-81
2021/12/27 04:34:34;;;;;;;62.28;25.65;;;-2.70;54.60;;;-5.02;63.39;100648.22;8309825;28;20473;-80
2021/12/27 04:38:56;;;;;;;58.28;23.83;;;-2.70;54.40;;;-5.03;63.55;100647.38;8295276;28;20064;-81
2021/12/27 04:43:23;;;;;;;49.15;21.45;;;-2.70;54.50;;;-5.00;63.03;100651.63;8286239;28;20128;-81
2021/12/27 04:47:45;;;;;;;57.40;22.95;;;-2.60;54.60;;;-4.97;63.13;100649.09;8297070;28;20553;-80
2021/12/27 04:52:07;;;;;;;43.58;20.67;;;-2.70;54.50;;;-4.95;63.34;100639.78;8297592;28;20128;-81
2021/12/27 04:56:29;;;;;;;46.97;19.77;;;-2.60;54.50;;;-5.01;63.08;100616.84;8313707;28;20129;-80
2021/12/27 05:00:53;;;;;;;49.55;21.73;;;-2.60;54.60;;;-4.94;63.34;100622.00;8281148;28;20040;-81
2021/12/27 05:05:15;;;;;;;64.30;25.35;;;-2.60;54.70;;;-4.84;63.36;100635.63;8289593;28;20121;-80
2021/12/27 05:09:37;;;;;;;46.65;19.90;;;-2.50;54.50;;;-4.76;63.15;100633.13;8321478;28;20546;-80
2021/12/27 05:13:58;;;;;;;40.90;19.05;;;-2.50;54.60;;;-4.68;63.06;100646.75;8308570;28;20133;-81
2021/12/27 05:18:20;;;;;;;42.50;17.55;;;-2.50;54.70;;;-4.64;62.97;100651.03;8270560;28;20491;-81
2021/12/27 05:22:42;;;;;;;43.58;17.65;;;-2.50;54.70;;;-4.67;63.31;100633.19;8299185;28;20121;-81
2021/12/27 05:27:04;;;;;;;35.00;17.33;;;-2.40;54.80;;;-4.71;63.45;100626.34;8304999;28;20132;-80
2021/12/27 05:31:26;;;;;;;42.30;19.55;;;-2.40;54.70;;;-4.55;63.03;100645.13;8320810;28;20132;-80
2021/12/27 05:35:48;;;;;;;45.13;20.40;;;-2.20;54.70;;;-4.48;63.37;100665.56;8297775;28;20129;-81
2021/12/27 05:40:18;;;;;;;38.28;17.00;;;-2.20;54.70;;;-4.43;63.41;100662.16;8312815;28;20038;-81
2021/12/27 05:44:40;;;;;;;51.95;19.88;;;-2.30;54.60;;;-4.47;63.08;100651.09;8292932;28;20041;-80
2021/12/27 05:49:02;;;;;;;47.17;19.98;;;-2.20;54.70;;;-4.41;63.40;100642.63;8277762;28;20140;-80
2021/12/27 05:53:24;;;;;;;38.63;17.75;;;-2.20;54.60;;;-4.30;63.40;100638.44;8294277;28;20041;-80
2021/12/27 05:57:45;;;;;;;34.17;17.17;;;-2.10;54.70;;;-4.37;63.16;100616.34;8305192;28;20631;-81
2021/12/27 06:02:07;;;;;;;49.63;21.45;;;-2.20;54.70;;;-4.27;63.28;100623.16;8297825;28;20558;-81
2021/12/27 06:06:29;;;;;;;44.38;19.58;;;-2.10;54.50;;;-4.43;63.08;100601.00;8288990;28;20120;-81
2021/12/27 06:10:51;;;;;;;45.25;19.05;;;-2.10;54.60;;;-4.33;63.30;100616.34;8292388;28;20129;-80
2021/12/27 06:15:14;;;;;;;43.25;19.45;;;-1.90;54.70;;;-4.17;62.62;100636.78;8304866;28;20124;-81
2021/12/27 06:19:36;;;;;;;42.58;19.83;;;-2.00;54.70;;;-4.27;63.33;100618.91;8300276;28;20033;-81
2021/12/27 06:23:57;;;;;;;43.72;19.05;;;-1.90;54.70;;;-4.41;63.25;100579.78;8310575;28;20120;-80
2021/12/27 06:28:19;;;;;;;53.97;24.02;;;-1.90;54.80;;;-4.16;63.39;100611.28;8285116;28;20120;-80
2021/12/27 06:32:42;;;;;;;46.95;19.92;;;-1.70;54.60;;;-4.14;63.30;100594.31;8285280;28;20411;-81
2021/12/27 06:37:04;;;;;;;42.53;18.02;;;-1.90;54.60;;;-4.18;63.47;100581.56;8301588;28;20125;-81
2021/12/27 06:41:26;;;;;;;54.55;22.70;;;-1.60;54.80;;;-4.02;63.19;100596.06;8279255;28;20582;-81
2021/12/27 06:45:48;;;;;;;48.85;21.02;;;-1.80;54.60;;;-4.02;63.04;100598.59;8290749;28;20124;-81
2021/12/27 06:50:11;;;;;;;64.05;26.08;;;-1.80;54.50;;;-4.04;63.32;100585.00;8269751;28;20133;-80
2021/12/27 06:54:33;;;;;;;40.88;18.25;;;-1.70;54.50;;;-3.93;63.51;100595.22;8311738;28;20120;-81
2021/12/27 06:58:55;;;;;;;47.17;21.58;;;-1.70;54.70;;;-4.09;63.22;100556.94;8295183;28;20049;-80
2021/12/27 07:03:16;;;;;;;48.72;21.00;;;-1.70;54.70;;;-3.95;63.14;100576.50;8308427;28;20037;-81
2021/12/27 07:07:40;;;;;;;59.33;22.98;;;-1.70;54.60;;;-3.97;63.37;100571.38;8283578;28;20036;-80
2021/12/27 07:12:01;;;;;;;42.92;17.80;;;-1.70;54.40;;;-4.03;63.19;100556.94;8289310;28;20048;-82
2021/12/27 07:16:25;;;;;;;52.85;23.17;;;-1.60;54.60;;;-3.91;63.07;100573.97;8291549;28;20508;-80
2021/12/27 07:20:47;;;;;;;40.95;20.45;;;-1.60;54.50;;;-3.84;63.22;100585.84;8297430;28;20037;-84
2021/12/27 07:25:09;;;;;;;53.30;23.75;;;-1.50;54.60;;;-3.69;63.24;100597.78;8289311;28;20112;-81
2021/12/27 07:29:31;;;;;;;43.05;20.92;;;-1.50;54.40;;;-3.74;62.91;100588.44;8291886;28;20129;-80
2021/12/27 07:33:54;;;;;;;50.47;22.65;;;-1.50;54.60;;;-3.85;62.92;100558.66;8305649;28;20370;-81
2021/12/27 07:38:16;;;;;;;41.53;18.88;;;-1.40;54.50;;;-3.74;63.17;100571.41;8300477;28;20037;-82
2021/12/27 07:42:38;;;;;;;50.42;20.48;;;-1.60;54.70;;;-3.52;63.31;100602.06;8303361;28;20117;-80
2021/12/27 07:47:00;;;;;;;51.00;19.00;;;-1.50;54.80;;;-3.59;63.53;100578.25;8293760;28;20041;-79
2021/12/27 07:51:22;;;;;;;48.63;19.58;;;-1.30;54.80;;;-3.65;63.14;100558.66;8296822;28;20056;-80
2021/12/27 07:55:44;;;;;;;44.33;18.50;;;-1.30;54.80;;;-3.44;63.20;100579.94;8297819;28;20124;-80
2021/12/27 08:00:08;;;;;;;39.72;18.10;;;-1.20;54.80;;;-3.42;62.94;100568.88;8294062;28;20425;-79
2021/12/27 08:04:31;;;;;;;44.10;19.83;;;-1.20;54.90;;;-3.25;63.31;100596.94;8306724;28;20144;-81
2021/12/27 08:08:53;;;;;;;41.22;18.65;;;-1.10;55.00;;;-3.27;63.31;100583.31;8261047;28;20407;-82
2021/12/27 08:13:15;;;;;;;54.08;23.60;;;-1.10;54.90;;;-3.24;63.10;100569.69;8281398;28;20470;-83
2021/12/27 08:17:37;;;;;;;40.25;18.40;;;-1.10;54.60;;;-3.26;63.22;100567.16;8291120;28;20048;-83
2021/12/27 08:22:01;;;;;;;45.42;18.58;;;-1.00;54.90;;;-3.06;63.43;100594.38;8285600;28;20601;-79
2021/12/27 08:26:22;;;;;;;35.85;16.92;;;-0.90;54.90;;;-3.16;63.45;100573.09;8279061;28;20124;-80
2021/12/27 08:30:44;;;;;;;46.80;19.58;;;-0.70;55.10;;;-3.23;63.30;100556.09;8275271;28;20030;-80
2021/12/27 08:35:08;;;;;;;37.85;18.30;;;-1.10;54.90;;;-2.96;62.88;100590.94;8297899;28;20581;-79
2021/12/27 08:39:30;;;;;;;42.00;17.38;;;-0.80;55.00;;;-3.05;63.26;100565.41;8287028;28;20045;-79
2021/12/27 08:43:51;;;;;;;36.65;17.88;;;-0.80;55.10;;;-2.86;63.30;100577.31;8293285;28;20728;-79
2021/12/27 08:48:13;;;;;;;45.75;19.88;;;-0.80;55.10;;;-2.82;63.33;100573.03;8303736;28;20124;-80
2021/12/27 08:52:35;;;;;;;40.38;18.00;;;-0.70;55.00;;;-2.82;63.52;100555.13;8304783;28;20117;-80
2021/12/27 08:56:57;;;;;;;33.70;15.82;;;-0.60;55.10;;;-2.86;63.30;100541.53;8301170;28;20041;-79
2021/12/27 09:01:19;;;;;;;41.10;18.23;;;-0.60;55.20;;;-2.69;63.38;100564.47;8297663;28;20037;-79
2021/12/27 09:05:42;;;;;;;41.13;18.30;;;-0.60;55.20;;;-2.76;63.69;100537.22;8306622;28;20124;-79
2021/12/27 09:10:05;;;;;;;37.55;17.42;;;-0.50;55.10;;;-2.82;62.86;100515.09;8299134;28;20124;-78
2021/12/27 09:14:27;;;;;;;33.97;16.38;;;-0.50;55.10;;;-2.65;63.43;100537.19;8291044;28;20044;-83
2021/12/27 09:18:49;;;;;;;39.80;18.85;;;-0.40;55.20;;;-2.77;63.50;100512.53;8315545;28;20040;-79
2021/12/27 09:23:11;;;;;;;39.92;17.30;;;-0.40;55.10;;;-2.47;63.33;100560.09;8310175;28;20149;-79
2021/12/27 09:27:32;;;;;;;50.17;21.08;;;-0.30;55.20;;;-2.47;63.13;100549.88;8296337;28;20503;-78
2021/12/27 09:31:54;;;;;;;43.15;19.25;;;-0.40;55.10;;;-2.49;63.06;100541.38;8306812;28;20568;-78
2021/12/27 09:36:16;;;;;;;47.28;18.98;;;-0.20;55.40;;;-2.35;63.09;100541.28;8275963;28;20029;-78
2021/12/27 09:40:38;;;;;;;35.13;16.33;;;-0.20;55.30;;;-2.33;63.11;100537.88;8279572;28;20487;-79
2021/12/27 09:45:00;;;;;;;33.10;15.23;;;-0.10;55.40;;;-2.24;63.08;100530.16;8284892;28;20124;-80
2021/12/27 09:49:29;;;;;;;32.97;16.08;;;-0.10;55.50;;;-2.17;63.71;100530.13;8303100;28;20116;-82
2021/12/27 09:53:52;;;;;;;40.40;17.50;;;0.00;55.40;;;-2.10;63.29;100529.22;8310040;28;20034;-80
2021/12/27 09:58:14;;;;;;;43.10;19.20;;;0.00;55.30;;;-2.03;63.28;100526.59;8288113;28;20044;-80
2021/12/27 10:02:38;;;;;;;36.17;15.27;;;0.10;55.40;;;-2.09;63.36;100500.22;8294404;28;20030;-80
2021/12/27 10:07:00;;;;;;;40.22;16.65;;;0.20;55.50;;;-1.96;63.49;100508.66;8288376;28;20040;-80
2021/12/27 10:11:27;;;;;;;40.15;17.35;;;0.20;55.50;;;-1.97;63.35;100481.38;8296506;28;20037;-80
2021/12/27 10:15:50;;;;;;;36.42;15.95;;;0.30;55.50;;;-1.81;63.09;100501.72;8297600;28;20130;-80
2021/12/27 10:20:28;;;;;;;36.75;15.73;;;0.20;55.40;;;-1.74;63.36;100496.53;8302761;28;20398;-80
2021/12/27 10:24:51;;;;;;;38.38;16.77;;;0.50;55.40;;;-1.66;63.02;100487.94;8299552;28;20029;-82
2021/12/27 10:29:16;;;;;;;39.50;17.60;;;0.50;55.50;;;-1.47;63.37;100501.41;8289304;28;20128;-81
2021/12/27 10:33:37;;;;;;;47.15;19.55;;;0.60;55.40;;;-1.45;63.55;100483.47;8301765;28;20037;-80
2021/12/27 10:38:15;;;;;;;40.75;18.25;;;0.60;55.30;;;-1.31;63.51;100491.88;8275388;28;20048;-81
2021/12/27 10:42:45;;;;;;;35.63;14.85;;;0.70;55.30;;;-1.44;63.38;100436.50;8304345;28;20482;-81
2021/12/27 10:47:33;;;;;;;38.97;17.75;;;0.70;55.60;;;-1.28;63.48;100439.75;8307315;28;20127;-81
2021/12/27 10:51:55;;;;;;;34.42;16.45;;;1.00;55.70;;;-0.96;63.56;100465.00;8288455;28;20116;-81
2021/12/27 10:56:20;;;;;;;29.00;15.30;;;1.10;55.50;;;-1.01;63.58;100443.72;8314084;28;20637;-80
2021/12/27 11:00:43;;;;;;;44.60;18.48;;;1.10;55.60;;;-0.75;63.33;100461.31;8293212;28;20043;-86
2021/12/27 11:05:23;;;;;;;31.00;15.02;;;1.30;55.40;;;-0.81;63.19;100443.44;8308041;28;20128;-83
2021/12/27 11:09:45;;;;;;;32.42;15.68;;;1.30;55.50;;;-0.64;63.48;100450.94;8280059;28;20152;-82
2021/12/27 11:14:07;;;;;;;34.15;15.43;;;1.30;55.40;;;-0.59;63.26;100437.19;8293814;28;20143;-82
2021/12/27 11:18:29;;;;;;;33.53;15.32;;;1.50;55.50;;;-0.63;63.07;100422.69;8305423;28;20034;-80
2021/12/27 11:22:58;;;;;;;35.53;15.93;;;1.60;55.50;;;-0.53;63.53;100425.97;8298933;28;20038;-83
2021/12/27 11:27:19;;;;;;;42.28;18.00;;;1.60;55.30;;;-0.65;63.30;100385.97;8291860;28;20114;-80
2021/12/27 11:31:48;;;;;;;38.28;18.08;;;1.70;55.10;;;-0.37;63.46;100422.31;8278630;28;20128;-80
2021/12/27 11:36:10;;;;;;;33.90;15.82;;;1.80;55.20;;;-0.42;63.30;100400.19;8293303;28;20038;-82
2021/12/27 11:40:45;;;;;;;32.08;15.57;;;1.80;55.40;;;-0.17;63.36;100413.44;8283022;28;20044;-80
2021/12/27 11:45:07;;;;;;;43.53;18.17;;;1.90;55.50;;;-0.25;63.38;100391.31;8289950;28;20120;-80
2021/12/27 11:49:50;;;;;;;31.27;14.80;;;2.00;55.20;;;-0.05;63.36;100419.25;8310430;28;20140;-82
2021/12/27 11:54:31;;;;;;;35.85;15.35;;;2.00;55.30;;;-0.04;63.32;100408.09;8294047;28;20047;-83
2021/12/27 11:58:52;;;;;;;29.40;14.23;;;2.00;55.20;;;-0.23;63.33;100357.97;8281704;28;20038;-82
2021/12/27 12:03:19;;;;;;;30.33;13.32;;;2.40;55.50;;;-0.02;63.56;100382.41;8291592;28;20120;-79
2021/12/27 12:07:40;;;;;;;30.02;14.20;;;2.00;55.30;;;0.16;63.20;100401.75;8283928;28;20384;-82
2021/12/27 12:12:05;;;;;;;28.85;14.48;;;2.20;55.30;;;-0.04;63.24;100361.06;8293828;28;20126;-80
2021/12/27 12:16:28;;;;;;;36.28;15.15;;;2.30;55.30;;;0.27;63.23;100399.88;8287271;28;20037;-81
2021/12/27 12:20:51;;;;;;;32.05;14.07;;;2.20;55.20;;;0.23;63.10;100377.69;8303286;28;20029;-81
2021/12/27 12:25:23;;;;;;;42.35;17.55;;;2.30;55.40;;;0.27;63.18;100363.03;8302038;28;20033;-83
2021/12/27 12:29:45;;;;;;;29.73;13.52;;;2.40;54.80;;;0.30;63.10;100363.84;8302986;28;20128;-80
2021/12/27 12:34:14;;;;;;;35.83;15.93;;;2.40;55.30;;;0.37;63.13;100364.56;8303602;28;20149;-83
2021/12/27 12:38:38;;;;;;;42.30;19.05;;;2.50;55.20;;;0.41;63.34;100366.22;8316155;28;20046;-80
2021/12/27 12:43:00;;;;;;;33.60;14.77;;;2.60;55.10;;;0.57;63.24;100382.19;8279276;28;20118;-83
2021/12/27 12:47:24;;;;;;;34.97;15.15;;;2.50;55.30;;;0.52;63.22;100374.56;8294776;28;20039;-80
2021/12/27 12:52:01;;;;;;;34.85;15.35;;;2.60;55.30;;;0.42;63.12;100352.50;8298778;28;20083;-80
2021/12/27 12:56:32;;;;;;;29.30;13.07;;;2.70;55.40;;;0.58;63.15;100373.59;8294971;28;20326;-80
2021/12/27 13:01:06;;;;;;;30.95;14.60;;;2.60;55.20;;;0.56;63.14;100357.34;8295482;28;20059;-80
2021/12/27 13:05:27;;;;;;;31.77;13.52;;;2.70;55.00;;;0.75;63.32;100380.94;8293861;28;20110;-80
2021/12/27 13:09:50;;;;;;;33.75;15.73;;;2.80;55.30;;;0.76;62.95;100373.22;8291926;28;20036;-80
2021/12/27 13:14:12;;;;;;;35.00;15.10;;;2.80;55.30;;;0.74;63.00;100356.16;8294625;28;20236;-80
2021/12/27 13:18:35;;;;;;;33.35;14.88;;;2.90;55.20;;;0.77;63.17;100366.34;8302158;28;20044;-80
2021/12/27 13:22:58;;;;;;;31.38;15.32;;;2.90;55.10;;;0.84;63.15;100373.06;8297416;28;20426;-80
2021/12/27 13:27:27;;;;;;;29.13;13.27;;;2.90;55.00;;;0.76;62.88;100357.81;8313110;28;20120;-80
2021/12/27 13:31:48;;;;;;;28.02;13.25;;;2.90;55.10;;;0.68;62.71;100349.41;8279838;28;20142;-80
2021/12/27 13:36:26;;;;;;;31.50;13.25;;;2.90;55.10;;;0.77;62.92;100359.47;8287782;28;20124;-80
2021/12/27 13:41:05;;;;;;;34.80;14.27;;;2.90;54.90;;;0.50;62.86;100314.66;8302904;28;20040;-81
2021/12/27 13:45:39;;;;;;;27.90;13.73;;;2.90;54.90;;;0.77;62.83;100374.91;8280555;28;20120;-80
2021/12/27 13:50:02;;;;;;;43.00;18.08;;;2.70;54.70;;;0.66;62.91;100357.13;8290902;28;20508;-81
2021/12/27 13:54:24;;;;;;;30.27;13.50;;;2.90;54.60;;;0.75;62.78;100380.94;8312796;28;20038;-81
2021/12/27 13:58:47;;;;;;;33.40;15.27;;;2.80;54.80;;;0.75;62.94;100374.09;8299357;28;20487;-81
2021/12/27 14:03:33;;;;;;;31.05;14.85;;;2.90;54.80;;;0.71;62.71;100380.19;8289432;28;20124;-81
2021/12/27 14:08:11;;;;;;;26.80;12.82;;;2.80;54.70;;;0.78;62.66;100402.28;8319556;28;20120;-80
2021/12/27 14:12:36;;;;;;;33.58;15.30;;;2.80;54.80;;;0.64;62.87;100368.31;8298484;28;20045;-81
2021/12/27 14:17:08;;;;;;;26.45;14.38;;;2.80;54.90;;;0.70;62.91;100378.47;8287780;28;20128;-81
2021/12/27 14:21:29;;;;;;;32.53;14.45;;;2.80;54.60;;;0.61;62.76;100366.66;8302511;28;20033;-81
2021/12/27 14:25:52;;;;;;;30.15;14.40;;;2.80;54.70;;;0.66;62.71;100382.00;8283247;28;20561;-83
2021/12/27 14:30:27;;;;;;;46.33;19.63;;;2.80;54.60;;;0.64;62.83;100383.75;8294994;28;20129;-82
2021/12/27 14:34:52;;;;;;;34.00;16.67;;;2.70;54.20;;;0.60;62.45;100369.28;8297495;28;20048;-82
2021/12/27 14:39:14;;;;;;;40.10;15.97;;;2.70;54.30;;;0.62;62.56;100370.06;8287917;28;20290;-82
2021/12/27 14:43:35;;;;;;;39.20;15.85;;;2.80;54.40;;;0.73;62.61;100388.72;8284786;28;20128;-82
2021/12/27 14:48:00;;;;;;;39.13;16.20;;;2.90;54.60;;;0.63;62.74;100371.78;8296599;28;20125;-81
2021/12/27 14:52:21;;;;;;;30.80;13.88;;;2.70;54.50;;;0.51;62.56;100338.63;8287067;28;20040;-81
2021/12/27 14:56:43;;;;;;;35.13;15.13;;;2.70;54.70;;;0.71;62.40;100364.75;8295357;28;20039;-82
2021/12/27 15:01:07;;;;;;;43.13;17.80;;;2.70;54.60;;;0.69;62.43;100368.25;8305857;28;20125;-81
2021/12/27 15:05:29;;;;;;;39.53;17.92;;;2.70;54.20;;;0.57;62.72;100351.34;8283888;28;20316;-82
2021/12/27 15:09:51;;;;;;;42.90;17.95;;;2.60;54.20;;;0.54;62.56;100354.84;8301595;28;20128;-82
2021/12/27 15:14:13;;;;;;;37.78;15.88;;;2.60;54.30;;;0.61;62.39;100358.94;8305392;28;20041;-81
2021/12/27 15:18:34;;;;;;;31.00;13.98;;;2.60;54.40;;;0.35;62.39;100318.41;8297716;28;20474;-82
2021/12/27 15:22:56;;;;;;;38.30;16.52;;;2.60;54.60;;;0.47;62.35;100355.81;8299994;28;20129;-83
2021/12/27 15:27:19;;;;;;;35.72;16.33;;;2.60;54.60;;;0.14;62.40;100293.13;8308854;28;20426;-82
2021/12/27 15:31:41;;;;;;;44.55;18.70;;;2.40;54.60;;;0.51;62.43;100347.16;8286028;28;20047;-82
2021/12/27 15:36:03;;;;;;;42.30;18.00;;;2.60;54.30;;;0.57;62.63;100365.03;8300826;28;20475;-82
2021/12/27 15:40:26;;;;;;;54.92;22.17;;;2.60;54.40;;;0.48;62.48;100354.94;8292085;28;20425;-82
2021/12/27 15:44:47;;;;;;;41.65;16.67;;;2.50;54.00;;;0.50;62.45;100370.31;8295765;28;20136;-81
2021/12/27 15:49:09;;;;;;;36.75;15.75;;;2.50;54.70;;;0.41;62.34;100346.53;8298239;28;20437;-82
2021/12/27 15:53:32;;;;;;;34.25;15.57;;;2.50;54.70;;;0.49;62.49;100358.34;8292447;28;20039;-81
2021/12/27 15:57:54;;;;;;;36.47;17.50;;;2.60;54.70;;;0.45;62.24;100360.13;8290658;28;20116;-81
2021/12/27 16:02:16;;;;;;;39.70;18.38;;;2.50;54.50;;;0.42;62.28;100357.63;8316945;28;20661;-81
2021/12/27 16:06:38;;;;;;;39.13;17.23;;;2.50;54.20;;;0.29;62.45;100335.63;8309581;28;20129;-82
2021/12/27 16:11:02;;;;;;;35.67;17.25;;;2.50;54.40;;;0.46;62.26;100358.41;8300706;28;20124;-82
2021/12/27 16:15:26;;;;;;;39.85;17.98;;;2.50;54.10;;;0.42;62.31;100353.34;8281513;28;20450;-82
2021/12/27 16:19:48;;;;;;;38.72;17.10;;;2.60;54.30;;;0.42;62.48;100361.03;8297150;28;20038;-82
2021/12/27 16:24:10;;;;;;;39.45;17.42;;;2.50;54.40;;;0.38;62.39;100350.88;8291637;28;20039;-82
2021/12/27 16:28:31;;;;;;;45.13;17.70;;;2.50;54.40;;;0.50;62.54;100381.44;8296106;28;20032;-82
2021/12/27 16:32:55;;;;;;;38.40;17.15;;;2.50;54.40;;;0.28;62.02;100333.94;8309073;28;20498;-82
2021/12/27 16:37:17;;;;;;;39.25;16.50;;;2.40;54.40;;;0.35;62.41;100354.34;8282129;28;20200;-82
2021/12/27 16:41:28;;;;;;;41.53;18.70;;;2.50;54.30;;;0.49;62.38;100373.75;8290540;28;20050;-82
2021/12/27 16:45:30;;;;;;;38.15;17.42;;;2.50;54.10;;;0.43;62.13;100362.75;8306174;28;20048;-82
2021/12/27 16:49:45;;;;;;;46.50;19.98;;;2.40;54.50;;;0.47;62.12;100365.25;8413304;28;20821;-80
2021/12/27 16:53:56;;;;;;;33.78;16.02;;;2.50;54.10;;;0.55;61.72;100371.09;8381483;28;20933;-79
2021/12/27 16:58:13;;;;;;;36.95;16.52;;;2.50;54.50;;;0.56;62.21;100372.78;8418696;27;20892;-82
2021/12/27 17:02:29;;;;;;;31.00;15.15;;;2.50;54.40;;;0.40;62.35;100343.97;8353969;28;20812;-81
2021/12/27 17:06:30;;;;;;;32.67;16.75;;;2.40;54.50;;;0.32;62.38;100338.97;8355871;28;20040;-81
2021/12/27 17:10:35;;;;;;;27.70;13.95;;;2.30;54.40;;;0.59;62.12;100370.13;8343739;28;20123;-82
2021/12/27 17:14:41;;;;;;;31.98;15.02;;;2.50;54.70;;;0.53;61.98;100360.00;8357459;28;20108;-81
2021/12/27 17:18:43;;;;;;;32.35;14.60;;;2.50;54.50;;;0.61;61.91;100382.06;8361186;28;20562;-81
2021/12/27 17:22:45;;;;;;;40.97;16.42;;;2.50;54.50;;;0.61;62.27;100383.81;8357808;28;20573;-81
2021/12/27 17:26:47;;;;;;;41.72;17.45;;;2.50;54.60;;;0.46;62.18;100358.41;8357213;28;20129;-81
2021/12/27 17:30:50;;;;;;;34.15;16.17;;;2.40;54.50;;;0.63;62.09;100387.19;8346453;28;20136;-82
2021/12/27 17:34:51;;;;;;;35.13;15.30;;;2.60;54.60;;;0.65;62.54;100388.03;8357001;28;20041;-82
2021/12/27 17:38:53;;;;;;;31.52;14.55;;;2.60;54.60;;;0.68;62.04;100398.22;8364001;28;20508;-81
2021/12/27 17:42:55;;;;;;;41.20;16.80;;;2.70;54.70;;;0.67;61.98;100401.66;8356120;28;20132;-81
2021/12/27 17:46:57;;;;;;;37.08;15.90;;;2.60;54.50;;;0.70;62.31;100406.72;8360659;28;20132;-82
2021/12/27 17:50:59;;;;;;;38.50;16.73;;;2.60;54.50;;;0.15;61.78;100320.50;8353697;28;20069;-81
2021/12/27 17:55:01;;;;;;;39.60;16.63;;;2.60;54.60;;;0.51;62.17;100387.41;8351303;28;20045;-82
2021/12/27 17:59:04;;;;;;;41.72;18.63;;;2.60;54.60;;;0.45;62.04;100378.13;8343191;28;20036;-82
2021/12/27 18:03:06;;;;;;;39.63;16.48;;;2.40;54.30;;;0.56;61.96;100386.44;8339533;28;20124;-83